• Join FlightAware (Why Join?)
  • Login
  • US Flag 
04:31PM EST


 

Airport Tracker/Info


-or-


 

Live Flight TrackerFlight Track Log ✈ TYR354 ✈ 22-Apr-2013 ✈ EBBR / BRU - LOWW / VIE

Flight Track Log - Related Links

Times and Time Zones

All times are in EDT time to prevent confusion due to time zone crossing. See the TYR354 flight status page for this flight to view local times or setup timezone preferences in your user account.

Time Position Orientation Groundspeed Altitude Reporting Facility
EDT Latitude Longitude Course Direction KTS MPH feet Rate Location/Type
11:52AM 50.8202 4.9613 105° East  Level Estimated
11:53AM 50.7928 5.1199 105° East  Level Estimated
11:54AM 50.7650 5.2783 105° East  Level Estimated
11:55AM 50.7371 5.4365 106° East  Level Estimated
11:56AM 50.7090 5.5945 106° East  Level Estimated
11:57AM 50.6807 5.7523 106° East  Level Estimated
11:58AM 50.6521 5.9100 106° East  Level Estimated
11:59AM 50.6233 6.0674 106° East  Level Estimated
12:00PM 50.5944 6.2247 106° East  Level Estimated
12:01PM 50.5652 6.3817 106° East  Level Estimated
12:02PM 50.5358 6.5386 106° East  Level Estimated
12:03PM 50.5062 6.6952 106° East  Level Estimated
12:04PM 50.4763 6.8517 107° East  Level Estimated
12:05PM 50.4463 7.0080 107° East  Level Estimated
12:06PM 50.4161 7.1641 107° East  Level Estimated
12:07PM 50.3856 7.3199 107° East  Level Estimated
12:08PM 50.3550 7.4756 107° East  Level Estimated
12:09PM 50.3241 7.6311 107° East  Level Estimated
12:10PM 50.2930 7.7863 107° East  Level Estimated
12:11PM 50.2618 7.9414 107° East  Level Estimated
12:12PM 50.2303 8.0962 108° East  Level Estimated
12:13PM 50.1986 8.2509 108° East  Level Estimated
12:14PM 50.1667 8.4053 108° East  Level Estimated
12:15PM 50.1346 8.5596 108° East  Level Estimated
12:16PM 50.1023 8.7136 108° East  Level Estimated
12:17PM 50.0698 8.8674 108° East  Level Estimated
12:18PM 50.0371 9.0211 108° East  Level Estimated
12:19PM 50.0042 9.1745 108° East  Level Estimated
12:20PM 49.9711 9.3277 109° East  Level Estimated
12:21PM 49.9378 9.4807 109° East  Level Estimated
12:22PM 49.9042 9.6334 109° East  Level Estimated
12:23PM 49.8705 9.7860 109° East  Level Estimated
12:24PM 49.8366 9.9383 109° East  Level Estimated
12:25PM 49.8025 10.0905 109° East  Level Estimated
12:26PM 49.7682 10.2424 109° East  Level Estimated
12:27PM 49.7337 10.3941 109° East  Level Estimated
12:28PM 49.6990 10.5456 109° East  Level Estimated
12:29PM 49.6640 10.6968 110° East  Level Estimated
12:30PM 49.6289 10.8479 110° East  Level Estimated
12:31PM 49.5936 10.9987 110° East  Level Estimated
12:32PM 49.5581 11.1493 110° East  Level Estimated
12:33PM 49.5224 11.2997 110° East  Level Estimated
12:34PM 49.4866 11.4499 110° East  Level Estimated
12:35PM 49.4505 11.5998 110° East  Level Estimated
12:36PM 49.4142 11.7496 110° East  Level Estimated
12:37PM 49.3777 11.8991 110° East  Level Estimated
12:38PM 49.3411 12.0484 111° Southeast  Level Estimated
12:39PM 49.3042 12.1974 111° Southeast  Level Estimated
12:40PM 49.2672 12.3463 111° Southeast  Level Estimated
12:41PM 49.2300 12.4949 111° Southeast  Level Estimated
12:42PM 49.1925 12.6433 111° Southeast  Level Estimated
12:43PM 49.1549 12.7915 111° Southeast  Level Estimated
12:44PM 49.1171 12.9394 111° Southeast  Level Estimated
12:45PM 49.0791 13.0871 111° Southeast  Level Estimated
12:46PM 49.0410 13.2346 112° Southeast  Level Estimated
12:47PM 49.0026 13.3819 112° Southeast  Level Estimated
12:48PM 48.9640 13.5289 112° Southeast  Level Estimated
12:49PM 48.9253 13.6757 112° Southeast  Level Estimated
12:50PM 48.8864 13.8223 112° Southeast  Level Estimated
12:51PM 48.8473 13.9687 112° Southeast  Level Estimated
12:52PM 48.8080 14.1148 112° Southeast  Level Estimated
12:53PM 48.7685 14.2607 112° Southeast  Level Estimated
12:54PM 48.7288 14.4063 112° Southeast  Level Estimated
12:55PM 48.6890 14.5518 112° Southeast  Level Estimated
12:56PM 48.6489 14.6970 113° Southeast  Level Estimated
12:57PM 48.6087 14.8419 113° Southeast  Level Estimated
12:58PM 48.5683 14.9867 113° Southeast  Level Estimated
12:59PM 48.5277 15.1312 113° Southeast  Level Estimated
01:00PM 48.4870 15.2755 113° Southeast  Level Estimated
01:01PM 48.4460 15.4195 113° Southeast  Level Estimated
01:02PM 48.4049 15.5633 113° Southeast  Level Estimated
01:03PM 48.3636 15.7069 113° Southeast  Level Estimated
01:04PM 48.3222 15.8503 113° Southeast  Level Estimated
01:05PM 48.2805 15.9934 114° Southeast  Level Estimated
01:06PM 48.2387 16.1362 114° Southeast  Level Estimated
01:07PM 48.1967 16.2789 114° Southeast  Level Estimated
01:08PM 48.1545 16.4213 114° Southeast  Level Estimated
01:09PM 48.1121 16.5635 114° Southeast  Level Estimated
01:10PM 48.1103 16.5697 114° Southeast  Level Estimated
01:11PM 48.1103 16.5697 146° Southeast  Level Estimated
01:12PM 48.1103 16.5697 146° Southeast  Level Estimated
01:13PM 48.1103 16.5697 146° Southeast  Level Estimated
01:14PM 48.1103 16.5697 146° Southeast  Level Estimated
01:15PM 48.1103 16.5697 146° Southeast  Level Estimated
01:16PM 48.1103 16.5697 146° Southeast  Level Estimated
01:17PM 48.1103 16.5697 146° Southeast  Level Estimated
01:18PM 48.1103 16.5697 146° Southeast  Level Estimated
01:19PM 48.1103 16.5697 146° Southeast  Level Estimated
01:20PM 48.1103 16.5697 146° Southeast  Level Estimated